Time;durP1;ratioP1;P1;durP2;ratioP2;P2;SDS_P1;SDS_P2;PMS_P1;PMS_P2;Temp;Humidity;BMP_temperature;BMP_pressure;BME280_temperature;BME280_humidity;BME280_pressure;Samples;Min_cycle;Max_cycle;Signal;HPM_P1;HPM_P2
2023/10/26 00:00:47;;;;;;;0.20;0.20;;;10.40;99.90;;;;;;4815991;29;20042;-78
2023/10/26 00:03:13;;;;;;;0.10;0.10;;;10.40;99.90;;;;;;4830825;29;20187;-77
2023/10/26 00:05:39;;;;;;;0.10;0.10;;;10.40;99.90;;;;;;4819417;29;20055;-77
2023/10/26 00:08:04;;;;;;;0.10;0.10;;;10.40;99.90;;;;;;4819774;29;20050;-77
2023/10/26 00:10:30;;;;;;;0.10;0.10;;;10.40;99.90;;;;;;4819070;29;20058;-77
2023/10/26 00:12:56;;;;;;;0.10;0.10;;;10.40;99.90;;;;;;4820716;29;20529;-77
2023/10/26 00:15:22;;;;;;;0.10;0.10;;;10.30;99.90;;;;;;4816101;29;20062;-77
2023/10/26 00:17:47;;;;;;;0.20;0.20;;;10.30;99.90;;;;;;4817403;29;20049;-78
2023/10/26 00:20:13;;;;;;;0.20;0.20;;;10.40;99.90;;;;;;4820077;29;20138;-77
2023/10/26 00:22:38;;;;;;;0.10;0.10;;;10.30;99.90;;;;;;4826773;29;20474;-77
2023/10/26 00:25:05;;;;;;;0.10;0.10;;;10.40;99.90;;;;;;4837122;29;20050;-77
2023/10/26 00:27:30;;;;;;;0.20;0.20;;;10.30;99.90;;;;;;4838578;29;20054;-77
2023/10/26 00:29:56;;;;;;;0.10;0.10;;;10.30;99.90;;;;;;4819719;29;20056;-77
2023/10/26 00:32:22;;;;;;;0.10;0.10;;;10.40;99.90;;;;;;4818878;29;20247;-77
2023/10/26 00:34:47;;;;;;;0.10;0.10;;;10.40;99.90;;;;;;4819585;29;20414;-77
2023/10/26 00:37:13;;;;;;;0.10;0.10;;;10.40;99.90;;;;;;4818484;29;20061;-77
2023/10/26 00:39:39;;;;;;;0.20;0.20;;;10.30;99.90;;;;;;4817679;29;20042;-77
2023/10/26 00:42:06;;;;;;;0.10;0.10;;;10.40;99.90;;;;;;4818442;29;20686;-78
2023/10/26 00:44:31;;;;;;;0.10;0.10;;;10.40;99.90;;;;;;4818738;29;20066;-77
2023/10/26 00:46:57;;;;;;;0.10;0.10;;;10.50;99.90;;;;;;4825950;29;20403;-77
2023/10/26 00:49:22;;;;;;;0.10;0.10;;;10.40;99.90;;;;;;4833583;29;20423;-77
2023/10/26 00:51:59;;;;;;;0.20;0.20;;;10.40;99.90;;;;;;4836476;29;20455;-77
2023/10/26 00:54:26;;;;;;;0.10;0.10;;;10.50;99.90;;;;;;4836903;29;20054;-77
2023/10/26 00:56:54;;;;;;;0.10;0.10;;;10.50;99.90;;;;;;4836429;29;20088;-77
2023/10/26 00:59:20;;;;;;;0.10;0.10;;;10.40;99.90;;;;;;4836739;29;20557;-77
2023/10/26 01:01:47;;;;;;;0.20;0.20;;;10.50;99.90;;;;;;4829290;29;20125;-77
2023/10/26 01:04:16;;;;;;;0.10;0.10;;;10.50;99.90;;;;;;4821051;29;20061;-77
2023/10/26 01:06:43;;;;;;;0.10;0.10;;;10.50;99.90;;;;;;4836286;29;20421;-76
2023/10/26 01:09:09;;;;;;;0.10;0.10;;;10.50;99.90;;;;;;4820937;29;20054;-77
2023/10/26 01:11:37;;;;;;;0.15;0.15;;;10.40;99.90;;;;;;4820577;29;20042;-76
2023/10/26 01:14:06;;;;;;;0.10;0.10;;;10.40;99.90;;;;;;4822694;29;20351;-77
2023/10/26 01:16:32;;;;;;;0.10;0.10;;;10.40;99.90;;;;;;4827277;29;20042;-77
2023/10/26 01:18:59;;;;;;;0.20;0.20;;;10.40;99.90;;;;;;4817489;29;20137;-78
2023/10/26 01:21:27;;;;;;;0.17;0.17;;;10.50;99.90;;;;;;4821970;29;20122;-77
2023/10/26 01:23:52;;;;;;;0.10;0.10;;;10.50;99.90;;;;;;4820234;29;20882;-77
2023/10/26 01:26:18;;;;;;;0.10;0.10;;;10.50;99.90;;;;;;4819193;29;20047;-78
2023/10/26 01:28:44;;;;;;;0.10;0.10;;;10.50;99.90;;;;;;4818070;29;20042;-77
2023/10/26 01:31:10;;;;;;;0.10;0.10;;;10.50;99.90;;;;;;4832189;29;20767;-77
2023/10/26 01:33:35;;;;;;;0.10;0.10;;;10.50;99.90;;;;;;4818729;29;20050;-77
2023/10/26 01:36:01;;;;;;;0.40;0.17;;;10.50;99.90;;;;;;4820957;29;20058;-77
2023/10/26 01:38:27;;;;;;;0.10;0.10;;;10.40;99.90;;;;;;4831001;29;20102;-77
2023/10/26 01:40:53;;;;;;;0.10;0.10;;;10.40;99.90;;;;;;4815005;29;20042;-77
2023/10/26 01:43:19;;;;;;;0.10;0.10;;;10.40;99.90;;;;;;4820087;29;20058;-77
2023/10/26 01:45:44;;;;;;;0.20;0.20;;;10.40;99.90;;;;;;4818327;29;20050;-76
2023/10/26 01:48:10;;;;;;;0.13;0.13;;;10.50;99.90;;;;;;4815214;29;20042;-77
2023/10/26 01:50:36;;;;;;;0.17;0.17;;;10.50;99.90;;;;;;4821102;29;20050;-77
2023/10/26 01:53:01;;;;;;;0.10;0.10;;;10.60;99.90;;;;;;4817682;29;20138;-78
2023/10/26 01:55:27;;;;;;;0.17;0.17;;;10.50;99.90;;;;;;4821140;29;20439;-78
2023/10/26 01:57:53;;;;;;;0.10;0.10;;;10.50;99.90;;;;;;4820582;29;20058;-78
2023/10/26 02:00:18;;;;;;;0.10;0.10;;;10.50;99.90;;;;;;4819469;29;20050;-78
2023/10/26 02:02:46;;;;;;;0.10;0.10;;;10.50;99.90;;;;;;4819704;29;20078;-78
2023/10/26 02:05:12;;;;;;;0.10;0.10;;;10.50;99.90;;;;;;4821093;29;20046;-78
2023/10/26 02:07:37;;;;;;;0.10;0.10;;;10.50;99.90;;;;;;4817401;29;20065;-78
2023/10/26 02:10:03;;;;;;;0.10;0.10;;;10.50;99.90;;;;;;4819533;29;20360;-77
2023/10/26 02:12:29;;;;;;;0.10;0.10;;;10.50;99.90;;;;;;4818632;29;20123;-76
2023/10/26 02:14:54;;;;;;;0.10;0.10;;;10.60;99.90;;;;;;4824603;29;20081;-76
2023/10/26 02:17:20;;;;;;;0.10;0.10;;;10.60;99.90;;;;;;4817128;29;20070;-76
2023/10/26 02:19:46;;;;;;;0.20;0.20;;;10.50;99.90;;;;;;4819150;29;20473;-77
2023/10/26 02:22:13;;;;;;;0.15;0.15;;;10.50;99.90;;;;;;4820004;29;20974;-77
2023/10/26 02:24:41;;;;;;;0.10;0.10;;;10.50;99.90;;;;;;4819111;29;20050;-77
2023/10/26 02:27:07;;;;;;;0.10;0.10;;;10.40;99.90;;;;;;4824625;29;20046;-77
2023/10/26 02:29:33;;;;;;;0.10;0.10;;;10.40;99.90;;;;;;4820603;29;20061;-77
2023/10/26 02:31:58;;;;;;;0.20;0.20;;;10.40;99.90;;;;;;4814683;29;20047;-77
2023/10/26 02:34:24;;;;;;;0.10;0.10;;;10.40;99.90;;;;;;4808660;29;20210;-77
2023/10/26 02:36:50;;;;;;;0.10;0.10;;;10.40;99.90;;;;;;4825330;29;20425;-77
2023/10/26 02:39:16;;;;;;;0.30;0.30;;;10.40;99.90;;;;;;4834763;29;20058;-78
2023/10/26 02:41:41;;;;;;;0.10;0.10;;;10.40;99.90;;;;;;4834701;29;20599;-77
2023/10/26 02:44:07;;;;;;;0.10;0.10;;;10.40;99.90;;;;;;4829898;29;20418;-77
2023/10/26 02:46:33;;;;;;;0.10;0.10;;;10.40;99.90;;;;;;4817957;29;20141;-77
2023/10/26 02:48:58;;;;;;;0.10;0.10;;;10.40;99.90;;;;;;4816976;29;20143;-77
2023/10/26 02:51:24;;;;;;;0.10;0.10;;;10.40;99.90;;;;;;4824905;29;20042;-78
2023/10/26 02:53:50;;;;;;;0.10;0.10;;;10.40;99.90;;;;;;4838975;29;20054;-77
2023/10/26 02:56:15;;;;;;;0.10;0.10;;;10.30;99.90;;;;;;4839390;29;20107;-78
2023/10/26 02:58:41;;;;;;;0.20;0.20;;;10.40;99.90;;;;;;4838407;29;20536;-78
2023/10/26 03:01:07;;;;;;;0.15;0.15;;;10.40;99.90;;;;;;4831953;29;20062;-78
2023/10/26 03:03:32;;;;;;;0.10;0.10;;;10.40;99.90;;;;;;4819875;29;20430;-78
2023/10/26 03:05:59;;;;;;;0.10;0.10;;;10.40;99.90;;;;;;4824684;29;20046;-78
2023/10/26 03:08:24;;;;;;;0.20;0.20;;;10.40;99.90;;;;;;4837558;29;20082;-78
2023/10/26 03:10:50;;;;;;;0.20;0.20;;;10.40;99.90;;;;;;4835634;29;20085;-77
2023/10/26 03:13:16;;;;;;;0.20;0.20;;;10.40;99.90;;;;;;4838394;29;20054;-77
2023/10/26 03:15:41;;;;;;;0.10;0.10;;;10.40;99.90;;;;;;4838998;29;20050;-77
2023/10/26 03:18:07;;;;;;;0.10;0.10;;;10.50;99.90;;;;;;4833904;29;20471;-78
2023/10/26 03:20:33;;;;;;;0.15;0.15;;;10.40;99.90;;;;;;4819669;29;20065;-78
2023/10/26 03:22:59;;;;;;;0.20;0.20;;;10.40;99.90;;;;;;4820374;29;20054;-77
2023/10/26 03:25:24;;;;;;;0.20;0.20;;;10.40;99.90;;;;;;4818077;29;20522;-78
2023/10/26 03:27:50;;;;;;;0.10;0.10;;;10.40;99.90;;;;;;4819768;29;20099;-77
2023/10/26 03:30:17;;;;;;;0.10;0.10;;;10.40;99.90;;;;;;4818822;29;20419;-77
2023/10/26 03:32:44;;;;;;;0.20;0.20;;;10.30;99.90;;;;;;4819594;29;20106;-78
2023/10/26 03:35:10;;;;;;;0.10;0.10;;;10.40;99.90;;;;;;4818226;29;20086;-77
2023/10/26 03:37:38;;;;;;;0.20;0.20;;;10.40;99.90;;;;;;4819251;29;20084;-77
2023/10/26 03:40:05;;;;;;;0.10;0.10;;;10.40;99.90;;;;;;4819256;29;20039;-77
2023/10/26 03:42:31;;;;;;;0.10;0.10;;;10.40;99.90;;;;;;4820869;29;20062;-77
2023/10/26 03:44:57;;;;;;;0.10;0.10;;;10.40;99.90;;;;;;4819977;29;20467;-77
2023/10/26 03:47:23;;;;;;;0.10;0.10;;;10.40;99.90;;;;;;4819011;29;20053;-77
2023/10/26 03:49:52;;;;;;;0.10;0.10;;;10.30;99.90;;;;;;4816940;29;20046;-77
2023/10/26 03:52:21;;;;;;;0.20;0.20;;;10.40;99.90;;;;;;4815925;29;20042;-77
2023/10/26 03:54:47;;;;;;;0.10;0.10;;;10.40;99.90;;;;;;4816141;29;20077;-77
2023/10/26 03:57:13;;;;;;;0.20;0.20;;;10.40;99.90;;;;;;4817358;29;20046;-77
2023/10/26 03:59:39;;;;;;;0.10;0.10;;;10.40;99.90;;;;;;4817566;29;20058;-78
2023/10/26 04:02:04;;;;;;;0.15;0.15;;;10.40;99.90;;;;;;4816664;29;20510;-78
2023/10/26 04:04:30;;;;;;;0.10;0.10;;;10.40;99.90;;;;;;4824506;29;20056;-78
2023/10/26 04:06:56;;;;;;;0.10;0.10;;;10.40;99.90;;;;;;4835708;29;20046;-78
2023/10/26 04:09:22;;;;;;;0.10;0.10;;;10.40;99.90;;;;;;4818556;29;20122;-78
2023/10/26 04:11:48;;;;;;;0.20;0.20;;;10.40;99.90;;;;;;4822439;29;20402;-78
2023/10/26 04:14:13;;;;;;;0.10;0.10;;;10.50;99.90;;;;;;4820197;29;20047;-77
2023/10/26 04:16:39;;;;;;;0.17;0.17;;;10.40;99.90;;;;;;4820833;29;20077;-78
2023/10/26 04:19:05;;;;;;;0.10;0.10;;;10.40;99.90;;;;;;4814055;29;20168;-78
2023/10/26 04:21:31;;;;;;;0.10;0.10;;;10.40;99.90;;;;;;4818609;29;20058;-78
2023/10/26 04:23:57;;;;;;;0.20;0.20;;;10.40;99.90;;;;;;4818935;29;20047;-77
2023/10/26 04:26:23;;;;;;;0.10;0.10;;;10.40;99.90;;;;;;4818293;29;20054;-78
2023/10/26 04:28:49;;;;;;;0.10;0.10;;;10.40;99.90;;;;;;4818486;29;20134;-78
2023/10/26 04:31:15;;;;;;;0.20;0.20;;;10.40;99.90;;;;;;4818789;29;20054;-78
2023/10/26 04:33:41;;;;;;;0.10;0.10;;;10.40;99.90;;;;;;4819986;29;20121;-77
2023/10/26 04:36:06;;;;;;;0.10;0.10;;;10.40;99.90;;;;;;4835862;29;20401;-78
2023/10/26 04:38:32;;;;;;;0.10;0.10;;;10.40;99.90;;;;;;4820990;29;20081;-78
2023/10/26 04:40:59;;;;;;;0.20;0.20;;;10.40;99.90;;;;;;4819576;29;20380;-78
2023/10/26 04:43:25;;;;;;;0.10;0.10;;;10.40;99.90;;;;;;4823632;29;20062;-77
2023/10/26 04:45:51;;;;;;;0.20;0.20;;;10.30;99.90;;;;;;4820629;29;20420;-78
2023/10/26 04:48:17;;;;;;;0.20;0.20;;;10.30;99.90;;;;;;4826475;29;20122;-77
2023/10/26 04:50:42;;;;;;;0.10;0.10;;;10.30;99.90;;;;;;4827671;29;20047;-78
2023/10/26 04:53:09;;;;;;;0.13;0.13;;;10.30;99.90;;;;;;4821960;29;20054;-78
2023/10/26 04:55:35;;;;;;;0.10;0.10;;;10.30;99.90;;;;;;4820427;29;20046;-78
2023/10/26 04:58:01;;;;;;;0.15;0.15;;;10.30;99.90;;;;;;4820196;29;20409;-78
2023/10/26 05:00:27;;;;;;;0.10;0.10;;;10.30;99.90;;;;;;4838258;29;20050;-77
2023/10/26 05:02:53;;;;;;;0.10;0.10;;;10.30;99.90;;;;;;4822515;29;20050;-77
2023/10/26 05:05:19;;;;;;;0.10;0.10;;;10.30;99.90;;;;;;4816711;29;20052;-77
2023/10/26 05:07:45;;;;;;;0.10;0.10;;;10.20;99.90;;;;;;4819434;29;20054;-78
2023/10/26 05:10:11;;;;;;;0.17;0.17;;;10.20;99.90;;;;;;4817199;29;20418;-78
2023/10/26 05:12:37;;;;;;;0.10;0.10;;;10.10;99.90;;;;;;4823113;29;20061;-78
2023/10/26 05:15:04;;;;;;;0.20;0.20;;;10.10;99.90;;;;;;4821369;29;20054;-78
2023/10/26 05:17:29;;;;;;;0.10;0.10;;;10.10;99.90;;;;;;4820225;29;20661;-78
2023/10/26 05:19:55;;;;;;;0.73;0.20;;;10.10;99.90;;;;;;4821475;29;20130;-78
2023/10/26 05:22:21;;;;;;;0.20;0.20;;;10.10;99.90;;;;;;4821534;29;20054;-78
2023/10/26 05:24:47;;;;;;;0.10;0.10;;;10.20;99.90;;;;;;4820294;29;20058;-78
2023/10/26 05:27:12;;;;;;;0.10;0.10;;;10.10;99.90;;;;;;4836676;29;20049;-78
2023/10/26 05:29:38;;;;;;;0.10;0.10;;;10.20;99.90;;;;;;4820976;29;20050;-77
2023/10/26 05:32:04;;;;;;;0.10;0.10;;;10.20;99.90;;;;;;4828590;29;20050;-76
2023/10/26 05:34:30;;;;;;;0.20;0.20;;;10.10;99.90;;;;;;4826124;29;20456;-77
2023/10/26 05:36:56;;;;;;;0.10;0.10;;;10.10;99.90;;;;;;4821071;29;20046;-78
2023/10/26 05:39:22;;;;;;;0.10;0.10;;;10.20;99.90;;;;;;4836038;29;20076;-78
2023/10/26 05:41:48;;;;;;;0.20;0.20;;;10.10;99.90;;;;;;4820470;29;20059;-77
2023/10/26 05:44:13;;;;;;;0.10;0.10;;;10.10;99.90;;;;;;4820547;29;20193;-77
2023/10/26 05:46:39;;;;;;;0.10;0.10;;;10.10;99.90;;;;;;4821558;29;20058;-78
2023/10/26 05:49:05;;;;;;;0.10;0.10;;;10.10;99.90;;;;;;4837451;29;20190;-77
2023/10/26 05:51:31;;;;;;;0.13;0.13;;;10.20;99.90;;;;;;4831517;29;20050;-78
2023/10/26 05:53:57;;;;;;;0.20;0.20;;;10.10;99.90;;;;;;4821466;29;20392;-77
2023/10/26 05:56:23;;;;;;;0.10;0.10;;;10.10;99.90;;;;;;4820307;29;20050;-77
2023/10/26 05:58:50;;;;;;;0.25;0.25;;;10.00;99.90;;;;;;4821014;29;20117;-78
2023/10/26 06:01:16;;;;;;;0.10;0.10;;;10.00;99.90;;;;;;4820600;29;20054;-77
2023/10/26 06:03:42;;;;;;;0.13;0.13;;;10.00;99.90;;;;;;4817852;29;20054;-77
2023/10/26 06:06:08;;;;;;;0.15;0.15;;;10.00;99.90;;;;;;4819312;29;20134;-77
2023/10/26 06:08:34;;;;;;;0.10;0.10;;;10.00;99.90;;;;;;4820852;29;20104;-77
2023/10/26 06:10:59;;;;;;;0.10;0.10;;;10.00;99.90;;;;;;4817534;29;20053;-77
2023/10/26 06:13:25;;;;;;;0.10;0.10;;;9.90;99.90;;;;;;4816294;29;20060;-77
2023/10/26 06:15:51;;;;;;;0.10;0.10;;;9.80;99.90;;;;;;4818055;29;20054;-76
2023/10/26 06:18:17;;;;;;;0.10;0.10;;;9.90;99.90;;;;;;4828753;29;20057;-77
2023/10/26 06:20:42;;;;;;;0.10;0.10;;;9.80;99.90;;;;;;4814744;29;20043;-78
2023/10/26 06:23:09;;;;;;;0.10;0.10;;;9.80;99.90;;;;;;4825693;29;20126;-77
2023/10/26 06:25:38;;;;;;;0.10;0.10;;;9.70;99.90;;;;;;4815062;29;20055;-77
2023/10/26 06:28:04;;;;;;;0.10;0.10;;;9.70;99.90;;;;;;4806451;29;20077;-77
2023/10/26 06:30:31;;;;;;;0.20;0.20;;;9.70;99.90;;;;;;4816697;29;20081;-78
2023/10/26 06:32:59;;;;;;;0.10;0.10;;;9.70;99.90;;;;;;4820576;29;20054;-77
2023/10/26 06:35:25;;;;;;;0.10;0.10;;;9.70;99.90;;;;;;4816713;29;20142;-77
2023/10/26 06:37:50;;;;;;;0.10;0.10;;;9.70;99.90;;;;;;4820090;29;20046;-77
2023/10/26 06:40:16;;;;;;;0.20;0.20;;;9.70;99.90;;;;;;4816721;29;20058;-76
2023/10/26 06:42:42;;;;;;;0.10;0.10;;;9.60;99.90;;;;;;4838191;29;20110;-77
2023/10/26 06:45:08;;;;;;;0.10;0.10;;;9.60;99.90;;;;;;4828578;29;20050;-75
2023/10/26 06:47:34;;;;;;;0.10;0.10;;;9.40;99.90;;;;;;4819798;29;20081;-76
2023/10/26 06:49:59;;;;;;;0.10;0.10;;;9.60;99.90;;;;;;4821342;29;20042;-76
2023/10/26 06:52:25;;;;;;;0.10;0.10;;;9.60;99.90;;;;;;4814687;29;20051;-75
2023/10/26 06:54:51;;;;;;;0.10;0.10;;;9.60;99.90;;;;;;4817150;29;20608;-75
2023/10/26 06:57:16;;;;;;;0.10;0.10;;;9.60;99.90;;;;;;4818123;29;20523;-75
2023/10/26 06:59:42;;;;;;;0.20;0.20;;;9.60;99.90;;;;;;4819517;29;20054;-76
2023/10/26 07:02:10;;;;;;;0.10;0.10;;;9.60;99.90;;;;;;4819076;29;20049;-75
2023/10/26 07:04:35;;;;;;;0.10;0.10;;;9.60;99.90;;;;;;4817781;29;20145;-76
2023/10/26 07:07:02;;;;;;;0.20;0.20;;;9.60;99.90;;;;;;4818377;29;20133;-75
2023/10/26 07:09:29;;;;;;;0.10;0.10;;;9.60;99.90;;;;;;4817487;29;20091;-75
2023/10/26 07:11:54;;;;;;;0.10;0.10;;;9.60;99.90;;;;;;4818326;29;20057;-76
2023/10/26 07:14:20;;;;;;;0.10;0.10;;;9.70;99.90;;;;;;4818823;29;20058;-75
2023/10/26 07:16:46;;;;;;;0.10;0.10;;;9.60;99.90;;;;;;4819099;29;20054;-75
2023/10/26 07:19:11;;;;;;;0.38;0.38;;;9.70;99.90;;;;;;4815220;29;20519;-75
2023/10/26 07:21:37;;;;;;;0.13;0.13;;;9.70;99.90;;;;;;4819474;29;20038;-75
2023/10/26 07:24:03;;;;;;;0.20;0.20;;;9.70;99.90;;;;;;4817984;29;20192;-76
2023/10/26 07:26:29;;;;;;;0.15;0.15;;;9.70;99.90;;;;;;4819988;29;20058;-76
2023/10/26 07:28:57;;;;;;;0.20;0.20;;;9.70;99.90;;;;;;4819611;29;20054;-75
2023/10/26 07:31:22;;;;;;;0.10;0.10;;;9.70;99.90;;;;;;4819112;29;20491;-76
2023/10/26 07:33:49;;;;;;;0.10;0.10;;;9.70;99.90;;;;;;4832564;29;20087;-76
2023/10/26 07:36:15;;;;;;;0.10;0.10;;;9.70;99.90;;;;;;4819251;29;20070;-76
2023/10/26 07:38:41;;;;;;;0.10;0.10;;;9.80;99.90;;;;;;4819518;29;20097;-76
2023/10/26 07:41:08;;;;;;;0.20;0.20;;;9.80;99.90;;;;;;4816064;29;20058;-75
2023/10/26 07:43:37;;;;;;;0.17;0.17;;;9.70;99.90;;;;;;4816627;29;20153;-76
2023/10/26 07:46:03;;;;;;;0.20;0.20;;;9.70;99.90;;;;;;4831043;29;20411;-76
2023/10/26 07:48:31;;;;;;;0.20;0.20;;;9.70;99.90;;;;;;4816672;29;20053;-75
2023/10/26 07:50:56;;;;;;;0.10;0.10;;;9.70;99.90;;;;;;4813840;29;20089;-76
2023/10/26 07:53:23;;;;;;;0.20;0.20;;;9.80;99.90;;;;;;4816706;29;20141;-76
2023/10/26 07:55:50;;;;;;;0.15;0.15;;;9.80;99.90;;;;;;4817683;29;20498;-76
2023/10/26 07:58:16;;;;;;;0.20;0.20;;;9.80;99.90;;;;;;4817475;29;20050;-76
2023/10/26 08:00:41;;;;;;;0.15;0.15;;;9.90;99.90;;;;;;4814930;29;20065;-75
2023/10/26 08:03:07;;;;;;;0.20;0.20;;;9.90;99.90;;;;;;4817998;29;20065;-75
2023/10/26 08:05:34;;;;;;;0.10;0.10;;;9.90;99.90;;;;;;4815758;29;20081;-76
2023/10/26 08:08:01;;;;;;;0.20;0.20;;;9.90;99.90;;;;;;4816038;29;20042;-75
2023/10/26 08:10:27;;;;;;;0.20;0.20;;;10.00;99.90;;;;;;4816218;29;20050;-76
2023/10/26 08:12:53;;;;;;;0.10;0.10;;;9.90;99.90;;;;;;4818964;29;20129;-76
2023/10/26 08:15:20;;;;;;;0.10;0.10;;;9.90;99.90;;;;;;4836663;29;20046;-76
2023/10/26 08:17:46;;;;;;;0.13;0.13;;;10.00;99.90;;;;;;4828587;29;20058;-76
2023/10/26 08:20:12;;;;;;;0.20;0.20;;;9.90;99.90;;;;;;4821183;29;20046;-75
2023/10/26 08:22:38;;;;;;;0.10;0.10;;;10.00;99.90;;;;;;4820583;29;20061;-77
2023/10/26 08:25:04;;;;;;;0.10;0.10;;;10.00;99.90;;;;;;4818557;29;20058;-76
2023/10/26 08:27:31;;;;;;;0.10;0.10;;;10.00;99.90;;;;;;4821362;29;20047;-78
2023/10/26 08:29:57;;;;;;;0.20;0.20;;;10.10;99.90;;;;;;4822300;29;20444;-78
2023/10/26 08:32:22;;;;;;;0.15;0.15;;;10.10;99.90;;;;;;4831695;29;20061;-80
2023/10/26 08:34:48;;;;;;;0.10;0.10;;;10.20;99.90;;;;;;4821277;29;20050;-79
2023/10/26 08:37:15;;;;;;;0.10;0.10;;;10.20;99.90;;;;;;4818906;29;20470;-78
2023/10/26 08:39:41;;;;;;;0.10;0.10;;;10.20;99.90;;;;;;4820434;29;20058;-78
2023/10/26 08:42:08;;;;;;;0.10;0.10;;;10.20;99.90;;;;;;4822424;29;20390;-78
2023/10/26 08:44:34;;;;;;;0.10;0.10;;;10.10;99.90;;;;;;4820494;29;20057;-73
2023/10/26 08:47:02;;;;;;;0.10;0.10;;;10.30;99.90;;;;;;4820762;29;20407;-74
2023/10/26 08:49:30;;;;;;;0.15;0.15;;;10.20;99.90;;;;;;4821242;29;20058;-73
2023/10/26 08:51:56;;;;;;;0.10;0.10;;;10.20;99.90;;;;;;4830607;29;20062;-74
2023/10/26 08:54:22;;;;;;;0.10;0.10;;;10.30;99.90;;;;;;4837450;29;20084;-73
2023/10/26 08:56:48;;;;;;;0.10;0.10;;;10.30;99.90;;;;;;4822684;29;20078;-74
2023/10/26 08:59:14;;;;;;;0.20;0.20;;;10.30;99.90;;;;;;4820235;29;20141;-74
2023/10/26 09:01:47;;;;;;;0.10;0.10;;;10.40;99.90;;;;;;4821783;29;20054;-80
2023/10/26 09:04:14;;;;;;;0.10;0.10;;;10.40;99.90;;;;;;4822363;29;20046;-74
2023/10/26 09:06:47;;;;;;;0.15;0.15;;;10.40;99.90;;;;;;4820890;29;20053;-74
2023/10/26 09:09:14;;;;;;;0.10;0.10;;;10.50;99.90;;;;;;4817554;29;20054;-75
2023/10/26 09:11:40;;;;;;;0.20;0.20;;;10.50;99.90;;;;;;4836694;29;20056;-75
2023/10/26 09:14:17;;;;;;;0.20;0.20;;;10.50;99.90;;;;;;4817757;29;20137;-75
2023/10/26 09:16:45;;;;;;;0.10;0.10;;;10.50;99.90;;;;;;4822355;29;20042;-75
2023/10/26 09:19:19;;;;;;;0.20;0.20;;;10.40;99.90;;;;;;4822348;29;20121;-75
2023/10/26 09:21:56;;;;;;;0.17;0.17;;;10.50;99.90;;;;;;4821186;29;20102;-75
2023/10/26 09:24:27;;;;;;;0.30;0.20;;;10.50;99.90;;;;;;4819204;29;20045;-74
2023/10/26 09:26:54;;;;;;;0.20;0.20;;;10.50;99.90;;;;;;4818795;29;20463;-75
2023/10/26 09:29:21;;;;;;;0.17;0.17;;;10.60;99.90;;;;;;4817257;29;20058;-73
2023/10/26 09:31:54;;;;;;;0.20;0.20;;;10.60;99.90;;;;;;4816888;29;20087;-75
2023/10/26 09:34:25;;;;;;;0.10;0.10;;;10.60;99.90;;;;;;4818767;29;20058;-74
2023/10/26 09:37:00;;;;;;;0.10;0.10;;;10.70;99.90;;;;;;4817762;29;20449;-75
2023/10/26 09:39:36;;;;;;;0.10;0.10;;;10.70;99.90;;;;;;4818950;29;20194;-74
2023/10/26 09:42:05;;;;;;;0.10;0.10;;;10.70;99.90;;;;;;4816276;29;20094;-74
2023/10/26 09:44:31;;;;;;;0.10;0.10;;;10.70;99.90;;;;;;4824547;29;20045;-74
2023/10/26 09:46:58;;;;;;;0.20;0.20;;;10.80;99.90;;;;;;4840245;29;20046;-74
2023/10/26 09:49:25;;;;;;;0.10;0.10;;;10.80;99.90;;;;;;4827756;29;20054;-74
2023/10/26 09:51:52;;;;;;;0.10;0.10;;;10.90;99.90;;;;;;4830865;29;20058;-73
2023/10/26 09:54:20;;;;;;;0.10;0.10;;;10.90;99.90;;;;;;4836632;29;20050;-74
2023/10/26 09:57:04;;;;;;;0.10;0.10;;;11.00;99.90;;;;;;4821449;29;20134;-74
2023/10/26 09:59:30;;;;;;;0.10;0.10;;;11.00;99.90;;;;;;4828421;29;20057;-74
2023/10/26 10:01:56;;;;;;;0.10;0.10;;;11.10;99.90;;;;;;4817761;29;20046;-73
2023/10/26 10:04:37;;;;;;;0.13;0.13;;;11.10;99.90;;;;;;4833171;29;20110;-73
2023/10/26 10:07:03;;;;;;;0.10;0.10;;;11.20;99.90;;;;;;4820139;29;21416;-73
2023/10/26 10:09:29;;;;;;;0.10;0.10;;;11.20;99.90;;;;;;4815566;29;20166;-73
2023/10/26 10:12:04;;;;;;;0.10;0.10;;;11.20;99.90;;;;;;4821250;29;20050;-74
2023/10/26 10:14:48;;;;;;;0.17;0.17;;;11.30;99.90;;;;;;4819491;29;20184;-73
2023/10/26 10:17:43;;;;;;;0.30;0.30;;;11.30;99.90;;;;;;4821248;29;20061;-73
2023/10/26 10:20:15;;;;;;;0.10;0.10;;;11.40;99.90;;;;;;4821333;29;20099;-74
2023/10/26 10:22:41;;;;;;;0.10;0.10;;;11.40;99.90;;;;;;4838256;29;20077;-74
2023/10/26 10:25:10;;;;;;;0.15;0.15;;;11.40;99.90;;;;;;4820207;29;20051;-74
2023/10/26 10:27:36;;;;;;;0.20;0.20;;;11.40;99.90;;;;;;4821002;29;20050;-73
2023/10/26 10:30:08;;;;;;;0.10;0.10;;;11.40;99.90;;;;;;4801991;29;20055;-75
2023/10/26 10:32:43;;;;;;;0.10;0.10;;;11.40;99.90;;;;;;4819984;29;20163;-75
2023/10/26 10:35:10;;;;;;;0.28;0.28;;;11.50;99.90;;;;;;4815453;29;20046;-75
2023/10/26 10:37:37;;;;;;;0.10;0.10;;;11.40;99.90;;;;;;4822092;29;20077;-75
2023/10/26 10:40:16;;;;;;;0.15;0.15;;;11.40;99.90;;;;;;4817932;29;20133;-75
2023/10/26 10:42:51;;;;;;;0.10;0.10;;;11.40;99.90;;;;;;4819562;29;20061;-75
2023/10/26 10:45:18;;;;;;;0.17;0.17;;;11.50;99.90;;;;;;4816829;29;20122;-76
2023/10/26 10:47:46;;;;;;;0.10;0.10;;;11.50;99.90;;;;;;4820134;29;20436;-75
2023/10/26 10:50:23;;;;;;;0.10;0.10;;;11.50;99.90;;;;;;4820753;29;20134;-81
2023/10/26 10:52:53;;;;;;;0.10;0.10;;;11.50;99.90;;;;;;4819401;29;20055;-75
2023/10/26 10:55:23;;;;;;;0.20;0.20;;;11.50;99.90;;;;;;4818047;29;20058;-75
2023/10/26 10:58:00;;;;;;;0.15;0.15;;;11.50;99.90;;;;;;4819652;29;20103;-75
2023/10/26 11:00:27;;;;;;;0.20;0.20;;;11.50;99.90;;;;;;4818671;29;20058;-75
2023/10/26 11:03:02;;;;;;;0.20;0.20;;;11.50;99.90;;;;;;4832793;29;20069;-75
2023/10/26 11:05:39;;;;;;;0.10;0.10;;;11.50;99.90;;;;;;4827998;29;20053;-75
2023/10/26 11:08:06;;;;;;;0.10;0.10;;;11.50;99.90;;;;;;4818468;29;20062;-75
2023/10/26 11:10:33;;;;;;;0.10;0.10;;;11.50;99.90;;;;;;4818939;29;20068;-74
2023/10/26 11:12:59;;;;;;;0.20;0.20;;;11.60;99.90;;;;;;4818735;29;20507;-75
2023/10/26 11:15:35;;;;;;;0.10;0.10;;;11.60;99.90;;;;;;4814481;29;20060;-76
2023/10/26 11:18:02;;;;;;;0.10;0.10;;;11.50;99.90;;;;;;4813692;29;20205;-75
2023/10/26 11:20:40;;;;;;;0.20;0.20;;;11.50;99.90;;;;;;4820347;29;20093;-75
2023/10/26 11:23:07;;;;;;;0.10;0.10;;;11.50;99.90;;;;;;4819870;29;20056;-75
2023/10/26 11:25:33;;;;;;;0.10;0.10;;;11.50;99.90;;;;;;4818505;29;20050;-75
2023/10/26 11:27:59;;;;;;;0.10;0.10;;;11.50;99.90;;;;;;4835007;29;20057;-75
2023/10/26 11:30:25;;;;;;;0.10;0.10;;;11.50;99.90;;;;;;4818085;29;20452;-75
2023/10/26 11:32:50;;;;;;;0.20;0.20;;;11.50;99.90;;;;;;4820505;29;20260;-75
2023/10/26 11:35:16;;;;;;;0.20;0.20;;;11.50;99.90;;;;;;4822914;29;20054;-75
2023/10/26 11:37:43;;;;;;;0.10;0.10;;;11.60;99.90;;;;;;4822710;29;20043;-75
2023/10/26 11:40:11;;;;;;;0.20;0.20;;;11.60;99.90;;;;;;4816044;29;20047;-75
2023/10/26 11:42:44;;;;;;;0.13;0.13;;;11.60;99.90;;;;;;4818492;29;20576;-75
2023/10/26 11:45:11;;;;;;;0.20;0.20;;;11.50;99.90;;;;;;4817281;29;20065;-74
2023/10/26 11:48:03;;;;;;;0.15;0.15;;;11.60;99.90;;;;;;4823940;29;20425;-74
2023/10/26 11:50:31;;;;;;;0.10;0.10;;;11.50;99.90;;;;;;4818662;29;20063;-77
2023/10/26 11:53:02;;;;;;;0.20;0.20;;;11.50;99.90;;;;;;4818577;29;20090;-75
2023/10/26 11:55:31;;;;;;;0.20;0.20;;;11.60;99.90;;;;;;4815600;29;20053;-75
2023/10/26 11:58:01;;;;;;;0.10;0.10;;;11.60;99.90;;;;;;4819660;29;20065;-72
2023/10/26 12:00:29;;;;;;;0.10;0.10;;;11.60;99.90;;;;;;4818079;29;20441;-75
2023/10/26 12:02:55;;;;;;;0.10;0.10;;;11.70;99.90;;;;;;4833292;29;20111;-75
2023/10/26 12:05:22;;;;;;;0.20;0.20;;;11.60;99.90;;;;;;4818743;29;20042;-74
2023/10/26 12:07:48;;;;;;;0.10;0.10;;;11.60;99.90;;;;;;4820082;29;20387;-74
2023/10/26 12:10:16;;;;;;;0.15;0.15;;;11.60;99.90;;;;;;4816395;29;20064;-75
2023/10/26 12:12:43;;;;;;;0.10;0.10;;;11.60;99.90;;;;;;4819127;29;20057;-75
2023/10/26 12:15:10;;;;;;;0.10;0.10;;;11.60;99.90;;;;;;4818701;29;20049;-75
2023/10/26 12:17:35;;;;;;;0.13;0.13;;;11.70;99.90;;;;;;4814990;29;20085;-74
2023/10/26 12:20:02;;;;;;;0.10;0.10;;;11.70;99.90;;;;;;4815777;29;20529;-74
2023/10/26 12:22:28;;;;;;;0.10;0.10;;;11.80;99.90;;;;;;4820242;29;20114;-73
2023/10/26 12:24:54;;;;;;;0.10;0.10;;;11.70;99.90;;;;;;4817641;29;20080;-74
2023/10/26 12:27:20;;;;;;;0.20;0.20;;;11.80;99.90;;;;;;4819236;29;20407;-74
2023/10/26 12:29:47;;;;;;;0.10;0.10;;;11.80;99.90;;;;;;4817152;29;20050;-73
2023/10/26 12:32:13;;;;;;;0.10;0.10;;;11.90;99.90;;;;;;4816798;29;20065;-73
2023/10/26 12:34:40;;;;;;;0.10;0.10;;;11.90;99.90;;;;;;4817231;29;20050;-73
2023/10/26 12:37:06;;;;;;;0.10;0.10;;;12.00;99.90;;;;;;4819901;29;20260;-74
2023/10/26 12:39:32;;;;;;;0.20;0.20;;;13.40;99.90;;;;;;4817292;29;20051;-74
2023/10/26 12:41:59;;;;;;;0.10;0.10;;;13.80;99.90;;;;;;4819047;29;20185;-73
2023/10/26 12:44:25;;;;;;;0.10;0.10;;;14.40;99.90;;;;;;4818035;29;20054;-73
2023/10/26 12:46:51;;;;;;;0.10;0.10;;;14.40;99.90;;;;;;4819848;29;20535;-73